Time;durP1;ratioP1;P1;durP2;ratioP2;P2;SDS_P1;SDS_P2;PMS_P1;PMS_P2;Temp;Humidity;BMP_temperature;BMP_pressure;BME280_temperature;BME280_humidity;BME280_pressure;Samples;Min_cycle;Max_cycle;Signal;HPM_P1;HPM_P2
2022/10/01 00:01:39;;;;;;;5.18;2.90;;;11.10;99.90;;;;;;5005710;28;20052;-75
2022/10/01 00:04:04;;;;;;;7.18;3.35;;;11.10;99.90;;;;;;5006078;28;20038;-76
2022/10/01 00:06:30;;;;;;;3.67;2.75;;;11.10;99.90;;;;;;4998855;28;20030;-76
2022/10/01 00:08:56;;;;;;;6.45;2.70;;;11.10;99.90;;;;;;4999599;28;20034;-75
2022/10/01 00:11:25;;;;;;;7.22;2.80;;;11.10;99.90;;;;;;5004880;28;20088;-76
2022/10/01 00:13:52;;;;;;;4.10;2.95;;;11.10;99.90;;;;;;5004208;28;20033;-76
2022/10/01 00:16:21;;;;;;;7.28;2.80;;;11.20;99.90;;;;;;5006024;28;20022;-75
2022/10/01 00:18:47;;;;;;;3.78;2.50;;;11.20;99.90;;;;;;4986011;28;20034;-76
2022/10/01 00:21:17;;;;;;;5.05;3.42;;;11.20;99.90;;;;;;5000710;28;20380;-76
2022/10/01 00:23:43;;;;;;;5.22;3.33;;;11.20;99.90;;;;;;5007236;28;20046;-76
2022/10/01 00:26:19;;;;;;;5.32;2.88;;;11.10;99.90;;;;;;5003026;28;20037;-76
2022/10/01 00:28:46;;;;;;;4.57;2.90;;;11.20;99.90;;;;;;4988876;28;20029;-75
2022/10/01 00:31:13;;;;;;;5.57;3.10;;;11.20;99.90;;;;;;5002044;28;20029;-76
2022/10/01 00:33:39;;;;;;;4.93;2.95;;;11.10;99.90;;;;;;4988756;28;20030;-76
2022/10/01 00:36:06;;;;;;;3.88;2.88;;;11.10;99.90;;;;;;5010520;28;20018;-75
2022/10/01 00:38:33;;;;;;;7.15;2.88;;;11.10;99.90;;;;;;5000723;28;20080;-74
2022/10/01 00:40:59;;;;;;;4.80;3.03;;;11.10;99.90;;;;;;5013882;28;20026;-77
2022/10/01 00:43:35;;;;;;;7.75;3.38;;;11.10;99.90;;;;;;5005350;28;20561;-75
2022/10/01 00:46:06;;;;;;;5.45;3.08;;;11.20;99.90;;;;;;5002462;28;20025;-75
2022/10/01 00:48:43;;;;;;;5.88;3.10;;;11.20;99.90;;;;;;4998907;28;20038;-75
2022/10/01 00:51:09;;;;;;;6.80;3.60;;;11.10;99.90;;;;;;5005408;28;20022;-74
2022/10/01 00:53:36;;;;;;;6.85;3.25;;;11.10;99.90;;;;;;5004561;28;20489;-75
2022/10/01 00:56:04;;;;;;;3.85;2.63;;;11.20;99.90;;;;;;5004608;28;20029;-76
2022/10/01 00:58:32;;;;;;;6.13;3.17;;;11.10;99.90;;;;;;4987347;28;20128;-76
2022/10/01 01:00:58;;;;;;;4.40;2.40;;;11.20;99.90;;;;;;4986375;28;20130;-75
2022/10/01 01:03:25;;;;;;;10.23;3.80;;;11.10;99.90;;;;;;5004198;28;20116;-75
2022/10/01 01:05:51;;;;;;;5.82;2.75;;;11.10;99.90;;;;;;5006481;28;20064;-75
2022/10/01 01:08:17;;;;;;;4.60;2.97;;;11.10;99.90;;;;;;5006213;28;20069;-76
2022/10/01 01:11:21;;;;;;;4.43;3.10;;;11.10;99.90;;;;;;5005389;28;20068;-76
2022/10/01 01:14:18;;;;;;;4.93;3.17;;;11.10;99.90;;;;;;5008670;28;20109;-76
2022/10/01 01:17:07;;;;;;;4.68;2.85;;;11.10;99.90;;;;;;5007758;28;20042;-75
2022/10/01 01:19:49;;;;;;;5.63;3.40;;;11.20;99.90;;;;;;4989190;28;20037;-75
2022/10/01 01:22:18;;;;;;;6.07;3.47;;;11.10;99.90;;;;;;4984661;28;20041;-76
2022/10/01 01:24:59;;;;;;;5.00;3.35;;;11.20;99.90;;;;;;4987067;28;20061;-76
2022/10/01 01:27:43;;;;;;;5.97;3.50;;;11.10;99.90;;;;;;5003984;28;20493;-76
2022/10/01 01:30:15;;;;;;;4.97;3.80;;;11.20;99.90;;;;;;5005123;28;20030;-75
2022/10/01 01:32:48;;;;;;;5.07;3.45;;;11.20;99.90;;;;;;5003536;28;20037;-76
2022/10/01 01:35:26;;;;;;;5.10;3.45;;;11.20;99.90;;;;;;5006137;28;20026;-76
2022/10/01 01:37:57;;;;;;;6.60;3.60;;;11.20;99.90;;;;;;5001703;28;20529;-76
2022/10/01 01:40:24;;;;;;;7.10;3.93;;;11.20;99.90;;;;;;5007751;28;20046;-76
2022/10/01 01:42:53;;;;;;;8.13;3.97;;;11.20;99.90;;;;;;5008138;28;20030;-76
2022/10/01 01:45:24;;;;;;;4.57;3.13;;;11.10;99.90;;;;;;5001303;28;20537;-76
2022/10/01 01:47:54;;;;;;;10.00;3.83;;;11.10;99.90;;;;;;5002788;28;20030;-76
2022/10/01 01:50:24;;;;;;;6.68;3.15;;;11.10;99.90;;;;;;5001145;28;20026;-76
2022/10/01 01:52:52;;;;;;;6.82;3.15;;;11.10;99.90;;;;;;5003277;28;20026;-76
2022/10/01 01:55:20;;;;;;;4.30;3.08;;;11.10;99.90;;;;;;5005579;28;20466;-76
2022/10/01 01:57:45;;;;;;;3.65;3.00;;;11.10;99.90;;;;;;5003607;28;20030;-75
2022/10/01 02:00:13;;;;;;;5.90;3.60;;;11.10;99.90;;;;;;5002733;28;20076;-80
2022/10/01 02:02:42;;;;;;;7.78;3.50;;;11.10;99.90;;;;;;4999630;28;20458;-75
2022/10/01 02:05:16;;;;;;;4.97;3.65;;;11.10;99.90;;;;;;5004413;28;20155;-75
2022/10/01 02:08:03;;;;;;;6.80;3.60;;;11.10;99.90;;;;;;5003802;28;20026;-74
2022/10/01 02:10:37;;;;;;;7.18;3.67;;;11.10;99.90;;;;;;5000768;28;20034;-76
2022/10/01 02:13:22;;;;;;;5.13;3.33;;;11.10;99.90;;;;;;4985938;28;20029;-74
2022/10/01 02:16:17;;;;;;;6.30;3.65;;;11.10;99.90;;;;;;5004571;28;20034;-75
2022/10/01 02:19:12;;;;;;;5.95;3.40;;;11.10;99.90;;;;;;5002027;28;20042;-74
2022/10/01 02:21:47;;;;;;;5.18;3.22;;;11.10;99.90;;;;;;5006485;28;20040;-75
2022/10/01 02:24:25;;;;;;;5.65;3.13;;;11.00;99.90;;;;;;5007922;28;20061;-74
2022/10/01 02:26:53;;;;;;;6.07;3.45;;;11.00;99.90;;;;;;5005931;28;20490;-75
2022/10/01 02:29:22;;;;;;;4.22;3.22;;;11.00;99.90;;;;;;5001326;28;20034;-74
2022/10/01 02:31:49;;;;;;;7.15;3.67;;;11.00;99.90;;;;;;5007424;28;20179;-74
2022/10/01 02:34:17;;;;;;;5.28;2.63;;;11.00;99.90;;;;;;5009751;28;20987;-74
2022/10/01 02:36:44;;;;;;;4.25;3.05;;;11.00;99.90;;;;;;5010562;28;20030;-75
2022/10/01 02:39:13;;;;;;;6.32;3.20;;;11.10;99.90;;;;;;5008397;28;20072;-75
2022/10/01 02:41:41;;;;;;;5.65;3.00;;;11.00;99.90;;;;;;5010330;28;20044;-75
2022/10/01 02:44:12;;;;;;;6.05;3.42;;;11.00;99.90;;;;;;5006779;28;20113;-74
2022/10/01 02:47:06;;;;;;;5.93;3.08;;;11.00;99.90;;;;;;5009279;28;20026;-74
2022/10/01 02:49:34;;;;;;;5.70;3.35;;;11.00;99.90;;;;;;5007556;28;20057;-74
2022/10/01 02:52:03;;;;;;;6.45;3.17;;;11.00;99.90;;;;;;5007288;28;20401;-74
2022/10/01 02:54:49;;;;;;;7.50;3.22;;;11.00;99.90;;;;;;4991830;28;20088;-75
2022/10/01 02:57:28;;;;;;;4.00;3.53;;;11.00;99.90;;;;;;5009878;28;20030;-74
2022/10/01 02:59:59;;;;;;;4.93;2.85;;;11.00;99.90;;;;;;5005891;28;20026;-74
2022/10/01 03:02:27;;;;;;;4.65;2.90;;;11.00;99.90;;;;;;5008565;28;20121;-74
2022/10/01 03:04:55;;;;;;;8.23;3.03;;;11.00;99.90;;;;;;5008669;28;20460;-74
2022/10/01 03:07:20;;;;;;;5.30;2.72;;;11.00;99.90;;;;;;5016199;28;20029;-75
2022/10/01 03:09:46;;;;;;;4.38;2.63;;;11.00;99.90;;;;;;5007934;28;20374;-75
2022/10/01 03:12:12;;;;;;;4.90;3.00;;;11.00;99.90;;;;;;5006439;28;20026;-75
2022/10/01 03:14:38;;;;;;;4.80;2.75;;;11.00;99.90;;;;;;5005744;28;20030;-75
2022/10/01 03:17:07;;;;;;;6.53;2.72;;;11.00;99.90;;;;;;5007360;28;20493;-75
2022/10/01 03:19:33;;;;;;;6.13;3.10;;;11.00;99.90;;;;;;5010752;28;20038;-75
2022/10/01 03:21:58;;;;;;;5.32;2.97;;;11.00;99.90;;;;;;5008008;28;20037;-75
2022/10/01 03:24:24;;;;;;;4.90;3.28;;;11.00;99.90;;;;;;5007774;28;20508;-74
2022/10/01 03:26:50;;;;;;;3.53;2.70;;;11.00;99.90;;;;;;5004414;28;20037;-75
2022/10/01 03:29:16;;;;;;;5.78;3.28;;;11.00;99.90;;;;;;5005462;28;20401;-74
2022/10/01 03:31:41;;;;;;;6.65;3.22;;;11.10;99.90;;;;;;5002185;28;20053;-75
2022/10/01 03:34:07;;;;;;;4.82;3.30;;;11.00;99.90;;;;;;5004511;28;20049;-76
2022/10/01 03:36:33;;;;;;;6.38;3.78;;;11.00;99.90;;;;;;5008258;28;20022;-75
2022/10/01 03:38:58;;;;;;;4.50;2.83;;;11.10;99.90;;;;;;5007872;28;20057;-74
2022/10/01 03:41:24;;;;;;;4.63;3.00;;;11.10;99.90;;;;;;5005069;28;20045;-74
2022/10/01 03:43:50;;;;;;;7.70;3.20;;;11.10;99.90;;;;;;4998995;28;20041;-75
2022/10/01 03:46:16;;;;;;;5.65;3.45;;;11.10;99.90;;;;;;5007630;28;20064;-75
2022/10/01 03:48:42;;;;;;;6.13;3.13;;;11.20;99.90;;;;;;5004464;28;20034;-75
2022/10/01 03:51:08;;;;;;;7.20;2.78;;;11.20;99.90;;;;;;5001813;28;20052;-75
2022/10/01 03:53:33;;;;;;;4.38;2.65;;;11.20;99.90;;;;;;5002856;28;20022;-75
2022/10/01 03:55:59;;;;;;;5.93;2.90;;;11.20;99.90;;;;;;5004413;28;20025;-75
2022/10/01 03:58:25;;;;;;;5.45;2.78;;;11.20;99.90;;;;;;5002466;28;20026;-74
2022/10/01 04:00:53;;;;;;;4.53;2.92;;;11.20;99.90;;;;;;5004256;28;20034;-75
2022/10/01 04:03:18;;;;;;;6.00;3.15;;;11.20;99.90;;;;;;5004369;28;20026;-74
2022/10/01 04:05:45;;;;;;;6.05;3.20;;;11.20;99.90;;;;;;5005313;28;20058;-75
2022/10/01 04:08:11;;;;;;;5.25;2.95;;;11.20;99.90;;;;;;5007905;28;20026;-75
2022/10/01 04:10:38;;;;;;;6.15;3.25;;;11.10;99.90;;;;;;5004405;28;20053;-75
2022/10/01 04:13:04;;;;;;;5.60;3.33;;;11.10;99.90;;;;;;5007238;28;20529;-75
2022/10/01 04:15:31;;;;;;;5.85;3.45;;;11.00;99.90;;;;;;5000052;28;20030;-75
2022/10/01 04:17:58;;;;;;;5.82;3.65;;;11.00;99.90;;;;;;5007536;28;20030;-75
2022/10/01 04:20:24;;;;;;;4.38;3.28;;;11.00;99.90;;;;;;5022084;28;20076;-75
2022/10/01 04:22:50;;;;;;;4.15;3.17;;;10.90;99.90;;;;;;5006585;28;20057;-74
2022/10/01 04:25:15;;;;;;;6.43;3.75;;;10.90;99.90;;;;;;5001563;28;20105;-75
2022/10/01 04:27:54;;;;;;;7.05;3.90;;;10.80;99.90;;;;;;5003334;28;20033;-75
2022/10/01 04:30:20;;;;;;;5.47;3.58;;;10.80;99.90;;;;;;5002214;28;20030;-75
2022/10/01 04:32:45;;;;;;;7.35;3.63;;;10.80;99.90;;;;;;5002297;28;20041;-75
2022/10/01 04:35:11;;;;;;;6.35;3.47;;;10.70;99.90;;;;;;5008988;28;20029;-76
2022/10/01 04:37:37;;;;;;;5.45;3.63;;;10.70;99.90;;;;;;4994812;28;20109;-75
2022/10/01 04:40:04;;;;;;;6.10;3.55;;;10.70;99.90;;;;;;5000649;28;20096;-75
2022/10/01 04:42:31;;;;;;;5.57;3.58;;;10.70;99.90;;;;;;5002036;28;20030;-75
2022/10/01 04:44:57;;;;;;;4.63;3.53;;;10.70;99.90;;;;;;5003103;28;20105;-75
2022/10/01 04:47:22;;;;;;;8.93;3.75;;;10.70;99.90;;;;;;5013266;28;20109;-74
2022/10/01 04:49:48;;;;;;;5.60;3.50;;;10.70;99.90;;;;;;5006149;28;20046;-74
2022/10/01 04:52:14;;;;;;;6.13;3.35;;;10.60;99.90;;;;;;5006755;28;20097;-74
2022/10/01 04:54:40;;;;;;;5.80;3.55;;;10.60;99.90;;;;;;5009573;28;20495;-75
2022/10/01 04:57:05;;;;;;;5.90;3.67;;;10.60;99.90;;;;;;5009028;28;20046;-74
2022/10/01 04:59:32;;;;;;;6.13;4.07;;;10.60;99.90;;;;;;5007044;28;20061;-74
2022/10/01 05:01:57;;;;;;;6.07;3.65;;;10.50;99.90;;;;;;5008774;28;20104;-76
2022/10/01 05:04:26;;;;;;;8.32;3.90;;;10.50;99.90;;;;;;5006706;28;20631;-75
2022/10/01 05:06:52;;;;;;;6.57;4.40;;;10.50;99.90;;;;;;5004068;28;20073;-75
2022/10/01 05:09:17;;;;;;;6.80;3.78;;;10.40;99.90;;;;;;4997026;28;21626;-77
2022/10/01 05:11:43;;;;;;;5.18;3.92;;;10.40;99.90;;;;;;4983543;28;20093;-75
2022/10/01 05:14:10;;;;;;;5.35;4.22;;;10.40;99.90;;;;;;4992839;28;20486;-75
2022/10/01 05:16:36;;;;;;;5.50;4.00;;;10.40;99.90;;;;;;4995693;28;20033;-76
2022/10/01 05:19:02;;;;;;;9.38;4.60;;;10.40;99.90;;;;;;4993640;28;20121;-75
2022/10/01 05:21:27;;;;;;;5.63;4.20;;;10.40;99.90;;;;;;5000888;28;20508;-76
2022/10/01 05:23:53;;;;;;;7.25;4.38;;;10.40;99.90;;;;;;5006027;28;20145;-76
2022/10/01 05:26:19;;;;;;;8.13;4.28;;;10.30;99.90;;;;;;5002787;28;20025;-76
2022/10/01 05:28:45;;;;;;;9.02;4.30;;;10.30;99.90;;;;;;5002023;28;20050;-75
2022/10/01 05:31:11;;;;;;;9.52;4.15;;;10.30;99.90;;;;;;4999645;28;20026;-75
2022/10/01 05:33:37;;;;;;;7.43;4.40;;;10.30;99.90;;;;;;5001918;28;20513;-75
2022/10/01 05:36:05;;;;;;;7.63;4.90;;;10.30;99.90;;;;;;5017531;28;20038;-75
2022/10/01 05:38:36;;;;;;;6.00;4.05;;;10.30;99.90;;;;;;5007094;28;20034;-77
2022/10/01 05:41:03;;;;;;;7.10;4.60;;;10.30;99.90;;;;;;5004212;28;20061;-76
2022/10/01 05:43:30;;;;;;;9.65;4.72;;;10.30;99.90;;;;;;5000458;28;20029;-74
2022/10/01 05:46:00;;;;;;;6.50;4.50;;;10.30;99.90;;;;;;5002595;28;20034;-75
2022/10/01 05:48:26;;;;;;;7.33;5.10;;;10.20;99.90;;;;;;5001487;28;20037;-75
2022/10/01 05:50:53;;;;;;;6.85;4.72;;;10.20;99.90;;;;;;5003886;28;20030;-75
2022/10/01 05:53:19;;;;;;;7.05;4.75;;;10.20;99.90;;;;;;4984809;28;20026;-75
2022/10/01 05:55:46;;;;;;;8.48;4.93;;;10.20;99.90;;;;;;5003201;28;20044;-75
2022/10/01 05:58:13;;;;;;;9.07;5.38;;;10.20;99.90;;;;;;5004740;28;20026;-76
2022/10/01 06:00:40;;;;;;;7.80;4.57;;;10.10;99.90;;;;;;5003528;28;20030;-75
2022/10/01 06:03:06;;;;;;;9.05;5.00;;;10.10;99.90;;;;;;4998881;28;20026;-75
2022/10/01 06:05:34;;;;;;;8.95;5.25;;;10.10;99.90;;;;;;4999803;28;20038;-75
2022/10/01 06:08:00;;;;;;;8.00;4.53;;;10.10;99.90;;;;;;5002778;28;20022;-75
2022/10/01 06:10:29;;;;;;;6.10;4.60;;;10.10;99.90;;;;;;5015381;28;20029;-76
2022/10/01 06:13:03;;;;;;;8.70;5.15;;;10.00;99.90;;;;;;5003689;28;20018;-75
2022/10/01 06:15:30;;;;;;;11.10;5.45;;;10.00;99.90;;;;;;5000899;28;20034;-75
2022/10/01 06:18:00;;;;;;;8.68;4.97;;;10.00;99.90;;;;;;5008375;28;20029;-75
2022/10/01 06:20:27;;;;;;;6.83;5.27;;;10.00;99.90;;;;;;5005228;28;20159;-75
2022/10/01 06:22:55;;;;;;;11.82;5.03;;;10.10;99.90;;;;;;5006364;28;20168;-75
2022/10/01 06:25:20;;;;;;;9.23;5.85;;;10.40;99.90;;;;;;5007509;28;20534;-74
2022/10/01 06:27:55;;;;;;;10.60;6.13;;;10.30;99.90;;;;;;5001600;28;20152;-75
2022/10/01 06:30:21;;;;;;;9.23;5.00;;;10.30;99.90;;;;;;5015639;28;21065;-75
2022/10/01 06:32:47;;;;;;;6.97;5.68;;;10.20;99.90;;;;;;5009015;28;20101;-74
2022/10/01 06:35:14;;;;;;;8.43;6.22;;;10.10;99.90;;;;;;5005970;28;20049;-75
2022/10/01 06:37:39;;;;;;;12.70;6.10;;;10.00;99.90;;;;;;5008462;28;20116;-75
2022/10/01 06:40:06;;;;;;;8.50;5.60;;;10.00;99.90;;;;;;5004133;28;20026;-76
2022/10/01 06:42:32;;;;;;;7.15;5.78;;;10.00;99.90;;;;;;5006717;28;20026;-76
2022/10/01 06:44:57;;;;;;;8.65;5.50;;;10.00;99.90;;;;;;5006461;28;20040;-75
2022/10/01 06:47:23;;;;;;;10.80;6.50;;;10.00;99.90;;;;;;5007623;28;20030;-76
2022/10/01 06:49:49;;;;;;;8.32;5.55;;;10.00;99.90;;;;;;5008592;28;20026;-75
2022/10/01 06:55:00;;;;;;;9.13;5.88;;;10.00;99.90;;;;;;5008122;28;20037;-75
2022/10/01 06:57:27;;;;;;;10.55;6.53;;;9.90;99.90;;;;;;5006556;28;20068;-75
2022/10/01 06:59:52;;;;;;;7.97;6.07;;;9.90;99.90;;;;;;5008789;28;20022;-75
2022/10/01 07:02:29;;;;;;;8.05;6.03;;;10.00;99.90;;;;;;5005216;28;20030;-75
2022/10/01 07:04:58;;;;;;;10.48;5.50;;;9.90;99.90;;;;;;5021792;28;20029;-74
2022/10/01 07:07:31;;;;;;;8.43;5.75;;;10.00;99.90;;;;;;5009209;28;20042;-77
2022/10/01 07:09:58;;;;;;;10.20;5.85;;;10.00;99.90;;;;;;5005660;28;20030;-75
2022/10/01 07:12:24;;;;;;;7.40;5.95;;;10.00;99.90;;;;;;5000628;28;20592;-75
2022/10/01 07:14:50;;;;;;;7.72;5.15;;;10.00;99.90;;;;;;5008880;28;20104;-75
2022/10/01 07:17:15;;;;;;;6.82;5.30;;;9.90;99.90;;;;;;5008294;28;20025;-75
2022/10/01 07:19:41;;;;;;;7.45;5.50;;;9.90;99.90;;;;;;5008208;28;20079;-76
2022/10/01 07:22:07;;;;;;;14.68;7.10;;;9.90;99.90;;;;;;5003404;28;20034;-76
2022/10/01 07:24:33;;;;;;;12.07;6.63;;;9.90;99.90;;;;;;5007800;28;20869;-75
2022/10/01 07:26:59;;;;;;;8.60;5.95;;;9.90;99.90;;;;;;5004778;28;20108;-76
2022/10/01 07:29:25;;;;;;;9.70;5.80;;;9.90;99.90;;;;;;5007423;28;20505;-76
2022/10/01 07:31:59;;;;;;;10.45;6.50;;;9.90;99.90;;;;;;5000241;28;20037;-76
2022/10/01 07:34:25;;;;;;;12.77;6.55;;;10.00;99.90;;;;;;5004992;28;20114;-76
2022/10/01 07:36:53;;;;;;;9.98;7.22;;;10.00;99.90;;;;;;5003741;28;20549;-75
2022/10/01 07:39:19;;;;;;;9.40;6.38;;;10.00;99.90;;;;;;4997090;28;20058;-75
2022/10/01 07:41:46;;;;;;;9.73;6.45;;;10.00;99.90;;;;;;4999095;28;20034;-76
2022/10/01 07:44:14;;;;;;;14.23;7.53;;;10.00;99.90;;;;;;5001675;28;20080;-78
2022/10/01 07:46:39;;;;;;;9.90;6.50;;;10.00;99.90;;;;;;5000908;28;20033;-77
2022/10/01 07:49:05;;;;;;;12.00;6.47;;;10.00;99.90;;;;;;5007435;28;20083;-76
2022/10/01 07:51:32;;;;;;;9.52;6.20;;;10.00;99.90;;;;;;5002236;28;20083;-75
2022/10/01 07:53:58;;;;;;;9.45;6.88;;;10.00;99.90;;;;;;5004822;28;20044;-77
2022/10/01 07:56:27;;;;;;;10.35;6.30;;;10.00;99.90;;;;;;5004531;28;20029;-76
2022/10/01 07:58:57;;;;;;;12.40;7.07;;;10.00;99.90;;;;;;5002947;28;20034;-76
2022/10/01 08:01:23;;;;;;;10.75;6.40;;;10.10;99.90;;;;;;4997392;28;20037;-77
2022/10/01 08:03:50;;;;;;;6.43;5.47;;;10.10;99.90;;;;;;5001948;28;20509;-76
2022/10/01 08:06:18;;;;;;;7.82;5.50;;;10.10;99.90;;;;;;5001196;28;20033;-75
2022/10/01 08:08:45;;;;;;;10.55;6.35;;;10.10;99.90;;;;;;5000630;28;20061;-75
2022/10/01 08:11:13;;;;;;;7.93;5.70;;;10.10;99.90;;;;;;5005706;28;20089;-76
2022/10/01 08:13:40;;;;;;;8.63;5.55;;;10.10;99.90;;;;;;4999298;28;20117;-75
2022/10/01 08:16:08;;;;;;;8.20;5.35;;;10.10;99.90;;;;;;5006550;28;20034;-76
2022/10/01 08:18:35;;;;;;;6.60;5.45;;;10.10;99.90;;;;;;5000521;28;20033;-75
2022/10/01 08:21:03;;;;;;;7.22;4.85;;;10.10;99.90;;;;;;5002341;28;20033;-76
2022/10/01 08:23:33;;;;;;;6.95;5.10;;;10.10;99.90;;;;;;5002980;28;20099;-76
2022/10/01 08:26:07;;;;;;;10.27;6.18;;;10.10;99.90;;;;;;5010213;28;20028;-76
2022/10/01 08:28:35;;;;;;;6.75;4.85;;;10.10;99.90;;;;;;5001836;28;20056;-76
2022/10/01 08:31:06;;;;;;;7.00;5.20;;;10.10;99.90;;;;;;4999796;28;20049;-76
2022/10/01 08:33:34;;;;;;;9.38;5.47;;;10.20;99.90;;;;;;4996201;28;20040;-75
2022/10/01 08:36:01;;;;;;;9.05;5.55;;;10.20;99.90;;;;;;5001072;28;20022;-76
2022/10/01 08:38:27;;;;;;;6.03;4.50;;;10.20;99.90;;;;;;5006668;28;20528;-76
2022/10/01 08:40:53;;;;;;;4.75;3.75;;;10.20;99.90;;;;;;5000243;28;20033;-76
2022/10/01 08:43:37;;;;;;;6.05;3.72;;;10.20;99.90;;;;;;5001710;28;20405;-76
2022/10/01 08:46:11;;;;;;;5.10;3.95;;;10.20;99.90;;;;;;4987383;28;20536;-76
2022/10/01 08:48:47;;;;;;;7.75;4.20;;;10.20;99.90;;;;;;5004265;28;20022;-76
2022/10/01 08:51:26;;;;;;;5.18;4.03;;;10.20;99.90;;;;;;5003507;28;20037;-80
2022/10/01 08:54:15;;;;;;;6.82;4.15;;;10.30;99.90;;;;;;5012633;28;21285;-83
2022/10/01 08:56:45;;;;;;;5.63;4.40;;;10.30;99.90;;;;;;5001822;28;20025;-79
2022/10/01 08:59:32;;;;;;;7.13;4.22;;;10.30;99.90;;;;;;4999940;28;20029;-83
2022/10/01 09:01:59;;;;;;;5.38;3.90;;;10.30;99.90;;;;;;4985298;28;20520;-81
2022/10/01 09:04:27;;;;;;;4.80;3.85;;;10.30;99.90;;;;;;5003551;28;20026;-79
2022/10/01 09:07:17;;;;;;;6.53;4.20;;;10.30;99.90;;;;;;5009645;28;20022;-76
2022/10/01 09:09:58;;;;;;;5.70;4.50;;;10.50;99.90;;;;;;5009029;28;20034;-75
2022/10/01 09:12:58;;;;;;;5.95;4.40;;;10.50;99.90;;;;;;4999623;28;20056;-77
2022/10/01 09:16:02;;;;;;;5.35;4.28;;;10.50;99.90;;;;;;5000587;28;20104;-78
2022/10/01 09:18:49;;;;;;;8.32;5.35;;;10.50;99.90;;;;;;5005760;28;20022;-76
2022/10/01 09:21:25;;;;;;;8.15;5.32;;;10.50;99.90;;;;;;4999014;28;21701;-77
2022/10/01 09:24:03;;;;;;;9.45;6.50;;;10.50;99.90;;;;;;5002827;28;20034;-77
2022/10/01 09:26:30;;;;;;;8.85;6.10;;;10.50;99.90;;;;;;5007833;28;20037;-78
2022/10/01 09:28:59;;;;;;;7.80;6.28;;;10.60;99.90;;;;;;5005708;28;20044;-75
2022/10/01 09:31:39;;;;;;;8.93;6.60;;;10.60;99.90;;;;;;5003775;28;20469;-76
2022/10/01 09:34:13;;;;;;;8.60;6.50;;;10.60;99.90;;;;;;5003004;28;20054;-76
2022/10/01 09:37:13;;;;;;;8.48;6.30;;;10.60;99.90;;;;;;5006332;28;20022;-75
2022/10/01 09:39:48;;;;;;;10.45;7.45;;;10.60;99.90;;;;;;5005248;28;20486;-78
2022/10/01 09:42:13;;;;;;;60.33;8.98;;;11.00;99.90;;;;;;4988750;28;20468;-77
2022/10/01 09:44:39;;;;;;;10.20;7.40;;;10.90;99.90;;;;;;5010051;28;20100;-77
2022/10/01 09:47:17;;;;;;;9.80;7.38;;;10.90;99.90;;;;;;5008871;28;20029;-77
2022/10/01 09:49:44;;;;;;;11.30;8.00;;;11.00;99.90;;;;;;5009121;28;20474;-78
2022/10/01 09:52:19;;;;;;;10.70;7.38;;;10.90;99.90;;;;;;5000054;28;20027;-77
2022/10/01 09:55:10;;;;;;;11.10;7.43;;;10.90;99.90;;;;;;5017025;28;20029;-76
2022/10/01 09:58:03;;;;;;;8.68;6.85;;;11.10;99.90;;;;;;5011883;28;20026;-76
2022/10/01 10:00:30;;;;;;;10.55;8.05;;;11.10;99.90;;;;;;5005674;28;20034;-76
2022/10/01 10:02:55;;;;;;;9.63;7.88;;;11.10;99.90;;;;;;4992587;28;20446;-76
2022/10/01 10:05:29;;;;;;;11.90;7.72;;;11.20;99.90;;;;;;4992642;28;20117;-76
2022/10/01 10:08:04;;;;;;;9.48;7.00;;;11.20;99.90;;;;;;5010195;28;20037;-76
2022/10/01 10:10:36;;;;;;;9.45;7.13;;;11.30;99.90;;;;;;5009368;28;20026;-78
2022/10/01 10:13:09;;;;;;;10.77;7.05;;;11.30;99.90;;;;;;5008731;28;20077;-75
2022/10/01 10:15:41;;;;;;;11.98;8.43;;;11.40;99.90;;;;;;5004369;28;20041;-74
2022/10/01 10:18:16;;;;;;;8.65;7.32;;;11.60;99.90;;;;;;5007116;28;20076;-74
2022/10/01 10:20:44;;;;;;;8.45;7.20;;;11.80;99.90;;;;;;4999219;28;20105;-74
2022/10/01 10:23:21;;;;;;;8.00;6.55;;;11.90;99.90;;;;;;5006064;28;20101;-74
2022/10/01 10:26:18;;;;;;;7.60;6.38;;;12.00;99.90;;;;;;5009855;28;20030;-75
2022/10/01 10:28:45;;;;;;;8.63;6.55;;;12.10;99.90;;;;;;5008930;28;20041;-75
2022/10/01 10:31:23;;;;;;;8.98;6.22;;;12.10;99.90;;;;;;5010405;28;20540;-76
2022/10/01 10:33:56;;;;;;;9.70;6.65;;;12.20;99.90;;;;;;5003777;28;20037;-75
2022/10/01 10:36:27;;;;;;;8.85;6.07;;;12.40;99.90;;;;;;5007153;28;20033;-75
2022/10/01 10:38:56;;;;;;;7.22;6.18;;;12.50;99.90;;;;;;5007226;28;20022;-76
2022/10/01 10:41:27;;;;;;;6.13;5.53;;;12.60;99.90;;;;;;5010223;28;20533;-77
2022/10/01 10:44:00;;;;;;;7.20;5.60;;;12.70;99.90;;;;;;4992157;28;20041;-75
2022/10/01 10:46:30;;;;;;;7.63;5.82;;;12.80;99.90;;;;;;5006532;28;20511;-75
2022/10/01 10:49:04;;;;;;;10.82;7.07;;;12.80;99.90;;;;;;5001470;28;20030;-80
2022/10/01 10:51:54;;;;;;;7.60;5.80;;;12.90;99.90;;;;;;4993998;28;20528;-81
2022/10/01 10:54:36;;;;;;;8.07;5.43;;;12.90;99.90;;;;;;4984720;28;20508;-81
2022/10/01 10:57:27;;;;;;;9.88;5.00;;;13.00;99.90;;;;;;4991986;28;20457;-79
2022/10/01 11:00:10;;;;;;;6.55;4.00;;;13.30;99.90;;;;;;5014723;28;20026;-82
2022/10/01 11:02:40;;;;;;;7.68;3.65;;;14.10;99.90;;;;;;4998515;28;20089;-81
2022/10/01 11:05:19;;;;;;;6.55;3.83;;;14.30;99.90;;;;;;4996686;28;20022;-80
2022/10/01 11:07:49;;;;;;;7.07;3.90;;;14.50;99.90;;;;;;4982983;28;20034;-84
2022/10/01 11:10:46;;;;;;;5.00;2.72;;;14.80;99.90;;;;;;4981315;28;20030;-84
2022/10/01 11:13:38;;;;;;;2.85;2.15;;;15.20;99.90;;;;;;4989299;28;20032;-78
2022/10/01 11:16:45;;;;;;;5.43;2.00;;;15.60;99.90;;;;;;4991649;28;20029;-80
2022/10/01 11:19:32;;;;;;;8.30;2.42;;;15.60;99.90;;;;;;5009726;28;20409;-83
2022/10/01 11:22:28;;;;;;;4.80;2.20;;;15.70;99.90;;;;;;5011349;28;20034;-80
2022/10/01 11:25:13;;;;;;;4.97;2.60;;;15.60;99.90;;;;;;5002040;28;20026;-78
2022/10/01 11:27:52;;;;;;;6.50;2.35;;;15.20;99.90;;;;;;5009474;28;20045;-80
2022/10/01 11:30:44;;;;;;;6.55;2.83;;;15.20;99.90;;;;;;4993024;28;20037;-78
2022/10/01 11:33:52;;;;;;;7.50;2.85;;;15.10;99.90;;;;;;5005901;28;20037;-72
2022/10/01 11:36:32;;;;;;;9.38;3.03;;;15.10;99.90;;;;;;5002006;28;20037;-75
2022/10/01 11:39:12;;;;;;;6.47;2.78;;;14.90;99.90;;;;;;5002103;28;20370;-76
2022/10/01 11:41:41;;;;;;;4.50;2.23;;;14.70;99.90;;;;;;5008946;28;20061;-76
2022/10/01 11:44:25;;;;;;;10.57;2.60;;;14.70;99.90;;;;;;5009616;28;20030;-75
2022/10/01 11:47:14;;;;;;;11.07;2.80;;;14.60;99.90;;;;;;5017625;28;20103;-75
2022/10/01 11:49:58;;;;;;;5.35;2.58;;;14.60;99.90;;;;;;5008827;28;20104;-76
2022/10/01 11:52:40;;;;;;;13.10;3.50;;;14.40;99.90;;;;;;5011265;28;20033;-74
2022/10/01 11:58:49;;;;;;;5.88;2.33;;;14.30;99.90;;;;;;5009417;28;20049;-75
2022/10/01 12:01:40;;;;;;;7.00;3.03;;;14.60;99.90;;;;;;5008775;28;20037;-76
2022/10/01 12:04:25;;;;;;;;;;;14.60;99.90;;;;;;5006259;28;20144;-76
2022/10/01 12:07:22;;;;;;;8.77;3.08;;;14.50;99.90;;;;;;5008452;28;19941;-77
2022/10/01 12:09:54;;;;;;;4.53;2.22;;;14.50;99.90;;;;;;5003327;28;20046;-77
2022/10/01 12:12:43;;;;;;;9.93;2.78;;;14.60;99.90;;;;;;5009664;28;20057;-77
2022/10/01 12:15:42;;;;;;;9.55;2.50;;;14.60;99.90;;;;;;5008496;28;20065;-78
2022/10/01 12:18:30;;;;;;;12.95;2.90;;;14.60;99.90;;;;;;5008145;28;20036;-79
2022/10/01 12:21:00;;;;;;;10.93;2.25;;;14.50;99.90;;;;;;4990712;28;20029;-79
2022/10/01 12:23:34;;;;;;;8.52;2.10;;;14.40;99.90;;;;;;5009627;28;20025;-80
2022/10/01 12:26:09;;;;;;;9.80;2.42;;;14.40;99.90;;;;;;5019535;28;20025;-80
2022/10/01 12:28:47;;;;;;;9.70;2.63;;;14.50;99.90;;;;;;4982533;28;20139;-79
2022/10/01 12:31:30;;;;;;;9.52;2.30;;;14.50;99.90;;;;;;4996305;28;20033;-79
2022/10/01 12:34:13;;;;;;;11.98;2.35;;;14.50;99.90;;;;;;4990729;28;20164;-79
2022/10/01 12:37:06;;;;;;;8.85;2.33;;;14.50;99.90;;;;;;5000211;28;20088;-80
2022/10/01 12:40:05;;;;;;;8.75;1.90;;;14.50;99.90;;;;;;4999957;28;20552;-79
2022/10/01 12:43:05;;;;;;;5.35;1.50;;;14.40;99.90;;;;;;5004816;28;20065;-79
2022/10/01 12:46:02;;;;;;;6.80;2.17;;;14.20;99.90;;;;;;4997539;28;20087;-80
2022/10/01 12:49:08;;;;;;;9.45;2.22;;;14.10;99.90;;;;;;5007592;28;20129;-79
2022/10/01 12:51:41;;;;;;;9.00;2.30;;;14.00;99.90;;;;;;5002380;28;20042;-79
2022/10/01 12:54:35;;;;;;;4.13;1.67;;;14.00;99.90;;;;;;4991928;28;20029;-78
2022/10/01 12:57:35;;;;;;;7.25;1.75;;;14.00;99.90;;;;;;5010610;28;20022;-79
2022/10/01 13:00:14;;;;;;;5.97;1.80;;;14.00;99.90;;;;;;5010035;28;20054;-79
2022/10/01 13:02:55;;;;;;;6.28;1.23;;;13.90;99.90;;;;;;5004877;28;20040;-80
2022/10/01 13:05:45;;;;;;;9.55;2.25;;;13.90;99.90;;;;;;5005899;28;20099;-78
2022/10/01 13:08:17;;;;;;;6.70;1.83;;;13.80;99.90;;;;;;4994429;28;20053;-79
2022/10/01 13:11:19;;;;;;;3.53;1.00;;;13.70;99.90;;;;;;5004735;28;20038;-79
2022/10/01 13:13:50;;;;;;;5.80;1.65;;;13.70;99.90;;;;;;4988456;28;20029;-79
2022/10/01 13:16:24;;;;;;;6.63;1.60;;;13.60;99.90;;;;;;5007878;28;20025;-79
2022/10/01 13:19:13;;;;;;;8.63;1.90;;;13.50;99.90;;;;;;4990278;28;20454;-79
2022/10/01 13:22:06;;;;;;;9.63;1.17;;;13.40;99.90;;;;;;5007430;28;20041;-79